Covesville, VA (22931)

8:39 AM EST on November 27, 2014 (GMT -0500)
Idlebrink Farm | Change Station
CLOSE
Current Station
Personal Weather Station
Location: Greenfield, VA
Elevation: 665 ft
Nearby Weather Stations

Elev 665 ft 37.93 °N, 78.82 °W | Updated 6 seconds ago

Overcast
Overcast
34.4 °F
Feels Like 34 °F
N
0.0
Wind Variable Wind from East
Gusts 0.0 mph

Today
High -- | Low -- °F
--% Chance of Precip.
Yesterday
High -- | Low -- °F
Precip. -- in
7:07 AM 4:56 PM
Waxing Crescent, 29% visible
Pressure 30.02 in
Visibility 0.2 miles
Clouds
Windchill 34 °F
Dew Point 34 °F
Humidity 97%
Rainfall 0.00 in
Snow Depth Not available.
UV Not available.
Pollen .10 out of 12
Air Quality Not available.
Flu Activity Not available.
SPECI KCHO 271329Z 00000KT 1/4SM FG VV001 02/02 A3002 RMK AO2 T00170017

More Conditions Fewer Conditions

Pressure 30.02 in
Visibility 0.2 miles
Clouds
Windchill 34 °F
Dew Point 34 °F
Humidity 97%
Rainfall 0.00 in
Snow Depth Not available.
UV Not available.
Pollen .10 out of 12
Air Quality Not available.
Flu Activity Not available.
SPECI KCHO 271329Z 00000KT 1/4SM FG VV001 02/02 A3002 RMK AO2 T00170017

More Conditions Fewer Conditions

10-Day Weather Forecast

Almanac

Astronomy

Nov. 27, 2014 Rise Set
Actual Time
Civil Twilight
Nautical Twilight
Astronomical Twilight
Moon
Length of Visible Light
Length of Day
Tomorrow will be .
, % of the Moon is Illuminated

Today's Extremes

State Highs State Lows

Community

WunderPhotos

Upload Photos

1,773,998 photos uploaded!

WunderBlogs® & News

Nearby

Air Quality

  Air Quality AQ Index Pollutant
Not available.

Snow Depth

Station Depth Elevation

Earthquake Activity

City Distance Mag. Time & Date
Minimum magnitude displayed is 2.5.

Coastal Water Temperatures

Place Temperature

Nearby Weather Stations